Time;durP1;ratioP1;P1;durP2;ratioP2;P2;SDS_P1;SDS_P2;PMS_P1;PMS_P2;Temp;Humidity;BMP_temperature;BMP_pressure;BME280_temperature;BME280_humidity;BME280_pressure;Samples;Min_cycle;Max_cycle;Signal;HPM_P1;HPM_P2
2021/03/22 00:01:52;;;;;;;18.57;6.60;;;5.80;99.90;;;;;;5096854;28;20388;-65
2021/03/22 00:04:18;;;;;;;21.87;7.50;;;5.80;99.90;;;;;;5097096;28;20163;-65
2021/03/22 00:06:43;;;;;;;14.47;6.30;;;5.80;99.90;;;;;;5096645;28;20385;-65
2021/03/22 00:09:09;;;;;;;18.13;6.80;;;5.80;99.90;;;;;;5096587;28;20150;-65
2021/03/22 00:11:35;;;;;;;16.23;6.43;;;5.70;99.90;;;;;;5095413;28;20159;-64
2021/03/22 00:14:00;;;;;;;22.03;6.17;;;5.70;99.90;;;;;;5096781;28;20155;-65
2021/03/22 00:16:26;;;;;;;16.73;8.13;;;5.80;99.90;;;;;;5097027;28;20170;-65
2021/03/22 00:18:52;;;;;;;21.27;7.33;;;5.80;99.90;;;;;;5096508;28;20185;-65
2021/03/22 00:21:17;;;;;;;17.37;6.17;;;5.80;99.90;;;;;;5095232;28;20526;-65
2021/03/22 00:23:43;;;;;;;16.20;6.37;;;5.80;99.90;;;;;;5096509;28;20392;-65
2021/03/22 00:26:09;;;;;;;19.00;6.47;;;5.80;99.90;;;;;;5096275;28;20159;-65
2021/03/22 00:28:38;;;;;;;14.73;6.40;;;5.80;99.90;;;;;;5096551;28;20163;-65
2021/03/22 00:31:05;;;;;;;17.63;6.00;;;5.80;99.90;;;;;;5096432;28;20173;-65
2021/03/22 00:33:31;;;;;;;21.80;5.77;;;5.80;99.90;;;;;;5096567;28;20456;-65
2021/03/22 00:35:56;;;;;;;17.73;5.60;;;5.80;99.90;;;;;;5094906;28;20874;-65
2021/03/22 00:38:22;;;;;;;17.93;5.67;;;5.90;99.90;;;;;;5096056;28;20471;-65
2021/03/22 00:40:48;;;;;;;16.77;5.67;;;5.90;99.90;;;;;;5096186;28;20179;-65
2021/03/22 00:43:13;;;;;;;20.07;7.33;;;5.90;99.90;;;;;;5096342;28;20163;-65
2021/03/22 00:45:39;;;;;;;17.37;6.50;;;5.90;99.90;;;;;;5096355;28;20781;-65
2021/03/22 00:48:05;;;;;;;17.50;5.97;;;5.90;99.90;;;;;;5095878;28;20639;-65
2021/03/22 00:50:35;;;;;;;19.03;5.30;;;5.90;99.90;;;;;;5106886;28;20185;-65
2021/03/22 00:53:01;;;;;;;16.90;5.70;;;5.90;99.90;;;;;;5115139;28;20944;-65
2021/03/22 00:55:27;;;;;;;19.70;6.83;;;5.90;99.90;;;;;;5116393;28;20388;-65
2021/03/22 00:57:53;;;;;;;20.13;7.97;;;5.90;99.90;;;;;;5116484;28;20391;-65
2021/03/22 01:02:59;;;;;;;16.27;5.67;;;5.90;99.90;;;;;;5090483;27;20574;-63
2021/03/22 01:05:25;;;;;;;16.63;6.77;;;5.90;99.90;;;;;;5090499;28;20726;-64
2021/03/22 01:07:52;;;;;;;26.03;6.70;;;5.90;99.90;;;;;;5076903;28;20233;-64
2021/03/22 01:13:16;;;;;;;20.63;5.87;;;5.90;99.90;;;;;;5111098;27;20599;-64
2021/03/22 01:15:41;;;;;;;22.23;6.90;;;5.90;99.90;;;;;;5109393;28;20461;-64
2021/03/22 01:18:08;;;;;;;19.90;7.93;;;5.90;99.90;;;;;;5110744;28;20385;-64
2021/03/22 01:20:39;;;;;;;17.23;6.70;;;5.90;99.90;;;;;;5109471;28;20668;-64
2021/03/22 01:23:05;;;;;;;14.60;6.17;;;5.90;99.90;;;;;;5109308;28;20395;-64
2021/03/22 01:25:32;;;;;;;27.47;7.57;;;5.90;99.90;;;;;;5108658;28;20408;-64
2021/03/22 01:27:58;;;;;;;31.40;11.23;;;5.90;99.90;;;;;;5110642;28;20396;-64
2021/03/22 01:30:33;;;;;;;21.50;5.97;;;5.90;99.90;;;;;;5110355;28;20470;-64
2021/03/22 01:32:59;;;;;;;23.40;8.37;;;5.90;99.90;;;;;;5110748;28;20189;-64
2021/03/22 01:35:25;;;;;;;21.40;9.37;;;5.90;99.90;;;;;;5110629;28;20805;-64
2021/03/22 01:37:51;;;;;;;32.60;12.20;;;5.90;99.90;;;;;;5110263;28;20421;-64
2021/03/22 01:40:38;;;;;;;22.13;10.70;;;5.90;99.90;;;;;;5109526;28;20429;-64
2021/03/22 01:43:16;;;;;;;19.63;9.00;;;5.90;99.90;;;;;;5110434;28;20196;-64
2021/03/22 01:45:43;;;;;;;19.47;8.07;;;5.90;99.90;;;;;;5108942;28;20433;-64
2021/03/22 01:48:08;;;;;;;21.07;5.20;;;5.90;99.90;;;;;;5110252;28;20395;-64
2021/03/22 01:50:34;;;;;;;14.87;6.00;;;5.90;99.90;;;;;;5110104;28;20384;-64
2021/03/22 01:53:01;;;;;;;22.40;5.70;;;5.90;99.90;;;;;;5110385;28;20198;-65
2021/03/22 01:55:27;;;;;;;20.97;7.37;;;5.90;99.90;;;;;;5108956;28;20163;-64
2021/03/22 01:57:53;;;;;;;22.17;6.47;;;5.90;99.90;;;;;;5107997;28;20416;-65
2021/03/22 02:03:00;;;;;;;27.50;10.20;;;5.90;99.90;;;;;;5110745;27;20506;-64
2021/03/22 02:05:28;;;;;;;27.80;10.53;;;5.80;99.90;;;;;;5110917;28;20429;-64
2021/03/22 02:10:41;;;;;;;24.37;8.53;;;5.80;99.90;;;;;;5131277;27;20514;-65
2021/03/22 02:13:08;;;;;;;31.50;10.57;;;5.80;99.90;;;;;;5131289;28;20389;-65
2021/03/22 02:15:35;;;;;;;20.57;7.43;;;5.80;99.90;;;;;;5121822;27;20396;-65
2021/03/22 02:21:24;;;;;;;20.60;8.80;;;5.80;99.90;;;;;;5111042;27;20498;-64
2021/03/22 02:27:14;;;;;;;15.87;6.10;;;5.80;99.90;;;;;;5131408;27;20550;-64
2021/03/22 02:30:19;;;;;;;16.50;6.23;;;5.80;99.90;;;;;;5130378;28;20756;-64
2021/03/22 02:38:22;;;;;;;18.30;6.50;;;5.80;99.90;;;;;;5090637;28;20511;-65
2021/03/22 02:41:11;;;;;;;18.60;6.43;;;5.80;99.90;;;;;;5090363;28;20397;-65
2021/03/22 02:43:37;;;;;;;21.17;7.27;;;5.80;99.90;;;;;;5090297;28;20748;-65
2021/03/22 02:46:05;;;;;;;14.47;5.60;;;5.80;99.90;;;;;;5076437;28;20421;-65
2021/03/22 02:48:32;;;;;;;16.70;6.70;;;5.80;99.90;;;;;;5087681;28;20413;-65
2021/03/22 02:53:52;;;;;;;33.20;6.50;;;5.80;99.90;;;;;;5110837;27;20525;-64
2021/03/22 02:59:24;;;;;;;23.60;9.93;;;5.80;99.90;;;;;;5131550;27;20877;-64
2021/03/22 03:01:56;;;;;;;25.50;9.63;;;5.80;99.90;;;;;;5130311;28;20789;-64
2021/03/22 03:04:22;;;;;;;27.10;8.93;;;5.80;99.90;;;;;;5131246;28;20445;-64
2021/03/22 03:09:29;;;;;;;15.60;7.93;;;5.80;99.90;;;;;;5131258;27;21055;-64
2021/03/22 03:11:56;;;;;;;23.07;8.33;;;5.80;99.90;;;;;;5129927;28;20399;-64
2021/03/22 03:14:23;;;;;;;15.50;8.97;;;5.80;99.90;;;;;;5130525;28;20380;-65
2021/03/22 03:16:49;;;;;;;15.70;7.63;;;5.80;99.90;;;;;;5131125;28;20425;-65
2021/03/22 03:19:15;;;;;;;17.93;9.63;;;5.80;99.90;;;;;;5131045;28;20743;-65
2021/03/22 03:21:40;;;;;;;17.03;9.00;;;5.70;99.90;;;;;;5131229;28;20484;-65
2021/03/22 03:24:09;;;;;;;20.43;9.23;;;5.70;99.90;;;;;;5129108;28;20406;-65
2021/03/22 03:26:35;;;;;;;21.27;9.57;;;5.70;99.90;;;;;;5131198;28;20264;-65
2021/03/22 03:29:01;;;;;;;20.50;11.30;;;5.70;99.90;;;;;;5130871;28;20492;-65
2021/03/22 03:31:26;;;;;;;20.40;10.53;;;5.70;99.90;;;;;;5130891;27;20795;-65
2021/03/22 03:33:52;;;;;;;20.93;10.30;;;5.80;99.90;;;;;;5130893;28;20564;-65
2021/03/22 03:36:18;;;;;;;26.50;11.00;;;5.70;99.90;;;;;;5129636;28;20234;-66
2021/03/22 03:38:43;;;;;;;32.57;12.13;;;5.70;99.90;;;;;;5130755;27;20164;-65
2021/03/22 03:41:09;;;;;;;22.33;11.40;;;5.70;99.90;;;;;;5130057;28;20184;-66
2021/03/22 03:43:35;;;;;;;21.27;11.10;;;5.70;99.90;;;;;;5130657;28;20161;-65
2021/03/22 03:46:01;;;;;;;17.03;11.20;;;5.70;99.90;;;;;;5129155;28;20190;-65
2021/03/22 03:48:27;;;;;;;28.00;12.40;;;5.70;99.90;;;;;;5130479;27;20445;-65
2021/03/22 03:50:58;;;;;;;28.67;12.00;;;5.70;99.90;;;;;;5130569;27;20237;-66
2021/03/22 03:53:24;;;;;;;27.93;13.00;;;5.70;99.90;;;;;;5130498;27;20449;-65
2021/03/22 03:55:50;;;;;;;24.03;12.57;;;5.70;99.90;;;;;;5131061;27;20815;-64
2021/03/22 03:58:16;;;;;;;28.13;12.03;;;5.70;99.90;;;;;;5129532;27;20408;-64
2021/03/22 04:00:45;;;;;;;26.00;11.17;;;5.70;99.90;;;;;;5130248;27;20162;-64
2021/03/22 04:06:00;;;;;;;25.73;13.87;;;5.70;99.90;;;;;;5110897;27;20518;-65
2021/03/22 04:08:28;;;;;;;22.87;12.80;;;5.70;99.90;;;;;;5109534;28;20424;-65
2021/03/22 04:10:55;;;;;;;25.87;11.57;;;5.70;99.90;;;;;;5109287;28;20394;-65
2021/03/22 04:13:21;;;;;;;21.93;11.87;;;5.70;99.90;;;;;;5108317;28;20390;-65
2021/03/22 04:15:47;;;;;;;19.07;11.47;;;5.70;99.90;;;;;;5103770;28;20401;-65
2021/03/22 04:18:13;;;;;;;22.93;11.50;;;5.60;99.90;;;;;;5110831;28;20293;-65
2021/03/22 04:20:39;;;;;;;26.73;12.50;;;5.70;99.90;;;;;;5110573;28;20390;-65
2021/03/22 04:23:04;;;;;;;19.40;9.90;;;5.60;99.90;;;;;;5109386;28;20245;-65
2021/03/22 04:25:30;;;;;;;18.43;10.37;;;5.70;99.90;;;;;;5110270;28;20440;-65
2021/03/22 04:27:56;;;;;;;22.63;9.90;;;5.60;99.90;;;;;;5110679;28;20381;-65
2021/03/22 04:30:22;;;;;;;18.50;10.30;;;5.60;99.90;;;;;;5109697;28;20208;-65
2021/03/22 04:32:49;;;;;;;20.00;10.70;;;5.60;99.90;;;;;;5110594;28;20154;-65
2021/03/22 04:35:14;;;;;;;22.87;9.90;;;5.60;99.90;;;;;;5110252;28;20397;-65
2021/03/22 04:37:40;;;;;;;22.00;10.47;;;5.60;99.90;;;;;;5110221;28;20481;-65
2021/03/22 04:40:07;;;;;;;18.13;9.90;;;5.60;99.90;;;;;;5110110;28;20154;-65
2021/03/22 04:42:33;;;;;;;23.20;11.73;;;5.60;99.90;;;;;;5110119;28;20523;-65
2021/03/22 04:44:59;;;;;;;23.00;10.43;;;5.60;99.90;;;;;;5109948;28;20440;-65
2021/03/22 04:47:24;;;;;;;19.87;10.90;;;5.60;99.90;;;;;;5109072;28;20194;-65
2021/03/22 04:49:50;;;;;;;23.47;11.97;;;5.60;99.90;;;;;;5110260;28;20212;-65
2021/03/22 04:52:16;;;;;;;21.33;11.13;;;5.60;99.90;;;;;;5109924;28;20158;-65
2021/03/22 04:54:41;;;;;;;33.23;11.57;;;5.60;99.90;;;;;;5109753;28;20236;-65
2021/03/22 04:57:28;;;;;;;19.87;10.90;;;5.60;99.90;;;;;;5110176;28;20150;-65
2021/03/22 04:59:54;;;;;;;22.43;10.57;;;5.60;99.90;;;;;;5108721;28;20208;-65
2021/03/22 05:02:20;;;;;;;25.83;12.60;;;5.60;99.90;;;;;;5110312;28;20405;-65
2021/03/22 05:04:46;;;;;;;19.47;10.93;;;5.60;99.90;;;;;;5107621;28;20820;-65
2021/03/22 05:07:12;;;;;;;23.03;10.70;;;5.60;99.90;;;;;;5108616;28;20191;-65
2021/03/22 05:09:38;;;;;;;26.33;12.83;;;5.50;99.90;;;;;;5108353;28;20394;-65
2021/03/22 05:12:05;;;;;;;26.17;11.57;;;5.50;99.90;;;;;;5109453;28;20538;-65
2021/03/22 05:14:31;;;;;;;25.70;12.40;;;5.50;99.90;;;;;;5105402;28;20656;-65
2021/03/22 05:16:56;;;;;;;23.93;11.40;;;5.50;99.90;;;;;;5077270;28;20457;-65
2021/03/22 05:19:22;;;;;;;21.20;13.23;;;5.50;99.90;;;;;;5075861;28;20612;-65
2021/03/22 05:21:47;;;;;;;27.93;14.10;;;5.50;99.90;;;;;;5076102;28;20176;-65
2021/03/22 05:24:13;;;;;;;27.93;15.47;;;5.50;99.90;;;;;;5075464;28;20283;-65
2021/03/22 05:26:38;;;;;;;18.20;13.97;;;5.50;99.90;;;;;;5075499;28;20161;-65
2021/03/22 05:29:04;;;;;;;25.87;14.43;;;5.50;99.90;;;;;;5075308;28;20651;-65
2021/03/22 05:31:34;;;;;;;22.23;15.20;;;5.50;99.90;;;;;;5075792;28;20554;-65
2021/03/22 05:34:00;;;;;;;23.90;15.80;;;5.50;99.90;;;;;;5075471;28;20227;-65
2021/03/22 05:36:25;;;;;;;22.73;14.80;;;5.50;99.90;;;;;;5075277;28;20448;-65
2021/03/22 05:38:51;;;;;;;30.60;15.67;;;5.50;99.90;;;;;;5075831;28;20172;-65
2021/03/22 05:41:22;;;;;;;26.17;16.17;;;5.50;99.90;;;;;;5075156;28;20156;-65
2021/03/22 05:43:55;;;;;;;24.60;17.13;;;5.50;99.90;;;;;;5075366;28;20205;-65
2021/03/22 05:49:30;;;;;;;23.43;16.23;;;5.50;99.90;;;;;;5131322;27;21055;-64
2021/03/22 05:52:23;;;;;;;23.03;15.00;;;5.50;99.90;;;;;;5131286;27;20459;-64
2021/03/22 05:55:00;;;;;;;30.70;16.80;;;5.50;99.90;;;;;;5130433;28;20416;-64
2021/03/22 05:57:51;;;;;;;30.30;16.33;;;5.50;99.90;;;;;;5112674;27;20405;-64
2021/03/22 06:00:36;;;;;;;26.73;16.07;;;5.50;99.90;;;;;;5109595;28;20408;-64
2021/03/22 06:03:21;;;;;;;27.97;17.30;;;5.60;99.90;;;;;;5109410;28;20483;-64
2021/03/22 06:05:55;;;;;;;29.80;18.50;;;5.50;99.90;;;;;;5110491;28;20399;-64
2021/03/22 06:10:59;;;;;;;33.40;18.80;;;5.60;99.90;;;;;;5111100;27;20503;-64
2021/03/22 06:13:30;;;;;;;29.57;19.70;;;5.60;99.90;;;;;;5100816;28;20462;-64
2021/03/22 06:16:01;;;;;;;33.90;20.07;;;5.60;99.90;;;;;;5105374;28;20427;-64
2021/03/22 06:18:54;;;;;;;33.10;21.87;;;5.70;99.90;;;;;;5110959;28;20409;-64
2021/03/22 06:21:19;;;;;;;30.80;19.47;;;5.70;99.90;;;;;;5109712;28;20404;-64
2021/03/22 06:23:47;;;;;;;26.37;20.30;;;5.70;99.90;;;;;;5110862;28;20431;-64
2021/03/22 06:26:38;;;;;;;30.07;19.93;;;5.70;99.90;;;;;;5109457;28;20252;-64
2021/03/22 06:31:49;;;;;;;31.47;18.37;;;5.70;99.90;;;;;;5131636;27;20552;-65
2021/03/22 06:34:21;;;;;;;28.43;17.33;;;5.70;99.90;;;;;;5130270;28;20384;-65
2021/03/22 06:36:46;;;;;;;27.03;17.23;;;5.70;99.90;;;;;;5130204;28;20427;-65
2021/03/22 06:39:13;;;;;;;25.03;17.60;;;5.70;99.90;;;;;;5131757;27;20419;-65
2021/03/22 06:44:37;;;;;;;27.53;17.60;;;5.80;99.90;;;;;;5131607;27;20561;-64
2021/03/22 06:47:19;;;;;;;27.97;18.90;;;5.80;99.90;;;;;;5123063;28;20433;-64
2021/03/22 06:49:48;;;;;;;22.60;17.00;;;5.80;99.90;;;;;;5109657;28;20904;-64
2021/03/22 06:52:18;;;;;;;25.30;15.70;;;5.80;99.90;;;;;;5109693;28;20433;-64
2021/03/22 06:57:24;;;;;;;25.40;17.30;;;5.80;99.90;;;;;;5131406;27;20512;-64
2021/03/22 07:00:19;;;;;;;27.67;18.00;;;5.80;99.90;;;;;;5131710;27;20421;-64
2021/03/22 07:08:04;;;;;;;22.70;16.93;;;5.90;99.90;;;;;;5110971;27;20501;-65
2021/03/22 07:10:41;;;;;;;25.97;17.03;;;5.80;99.90;;;;;;5111224;28;20961;-65
2021/03/22 07:13:14;;;;;;;25.40;19.87;;;5.80;99.90;;;;;;5110284;28;20405;-65
2021/03/22 07:15:39;;;;;;;25.93;17.50;;;5.80;99.90;;;;;;5110669;28;20926;-65
2021/03/22 07:18:33;;;;;;;21.20;15.93;;;5.90;99.90;;;;;;5110948;28;20391;-65
2021/03/22 07:32:03;;;;;;;24.97;17.23;;;5.90;99.90;;;;;;5131711;27;20504;-63
2021/03/22 07:34:57;;;;;;;20.83;16.20;;;6.20;99.90;;;;;;5130427;28;20424;-65
2021/03/22 07:37:50;;;;;;;22.00;15.40;;;6.20;99.90;;;;;;5128839;28;20470;-66
2021/03/22 07:43:34;;;;;;;16.10;12.47;;;6.40;99.90;;;;;;5131391;27;20570;-64
2021/03/22 07:49:10;;;;;;;19.20;12.60;;;6.50;99.90;;;;;;5111060;27;20915;-64
2021/03/22 07:52:02;;;;;;;16.00;12.50;;;6.50;99.90;;;;;;5109878;28;20428;-64
2021/03/22 07:55:08;;;;;;;16.53;12.60;;;6.50;99.90;;;;;;5107914;28;20390;-64
2021/03/22 07:58:01;;;;;;;14.17;10.47;;;6.50;99.90;;;;;;5089499;28;20385;-64
2021/03/22 08:00:52;;;;;;;23.53;13.07;;;6.60;99.90;;;;;;5089443;28;20381;-64
2021/03/22 08:09:08;;;;;;;17.60;12.47;;;6.60;99.90;;;;;;5110963;27;20578;-65
2021/03/22 08:20:27;;;;;;;17.70;11.87;;;6.50;99.90;;;;;;5131568;27;20496;-64
2021/03/22 08:25:38;;;;;;;14.43;11.57;;;6.70;99.90;;;;;;5131755;27;20518;-64
2021/03/22 08:31:12;;;;;;;16.07;11.63;;;6.80;99.90;;;;;;5110900;27;20503;-65
2021/03/22 08:33:52;;;;;;;16.87;12.93;;;6.90;99.90;;;;;;5110929;28;20397;-65
2021/03/22 08:39:05;;;;;;;12.87;11.43;;;7.10;99.90;;;;;;5070575;28;20520;-64
2021/03/22 08:41:46;;;;;;;14.03;10.27;;;7.20;99.90;;;;;;5070584;28;20386;-64
2021/03/22 08:44:34;;;;;;;13.20;11.07;;;7.30;99.90;;;;;;5070217;28;20489;-64
2021/03/22 08:49:54;;;;;;;11.03;9.83;;;7.40;99.90;;;;;;5131497;27;20510;-64
2021/03/22 08:52:40;;;;;;;11.70;10.50;;;7.30;99.90;;;;;;5130715;28;20892;-64
2021/03/22 08:55:12;;;;;;;12.20;10.00;;;7.40;99.90;;;;;;5130317;28;20381;-64
2021/03/22 08:58:02;;;;;;;11.33;9.10;;;7.40;99.90;;;;;;5131213;27;20392;-64
2021/03/22 09:11:41;;;;;;;13.43;7.67;;;7.40;99.90;;;;;;5110824;27;20504;-64
2021/03/22 09:16:51;;;;;;;15.00;7.80;;;7.40;99.90;;;;;;5131591;27;20510;-64
2021/03/22 09:48:36;;;;;;;7.67;6.90;;;7.50;99.90;;;;;;5131643;27;20877;-64
2021/03/22 09:56:32;;;;;;;9.10;6.90;;;8.50;99.90;;;;;;5110988;27;20842;-65
2021/03/22 10:02:40;;;;;;;9.07;7.27;;;8.50;99.90;;;;;;5110925;27;20562;-64
2021/03/22 10:05:16;;;;;;;8.80;7.80;;;8.40;99.90;;;;;;5092605;28;20406;-64
2021/03/22 10:07:42;;;;;;;8.17;7.37;;;8.20;99.90;;;;;;5110968;28;20473;-64
2021/03/22 10:12:59;;;;;;;6.93;6.13;;;8.20;99.90;;;;;;5090773;27;21045;-65
2021/03/22 10:26:06;;;;;;;11.90;8.50;;;8.00;99.90;;;;;;5090848;28;20507;-64
2021/03/22 10:28:32;;;;;;;8.60;7.80;;;8.00;99.90;;;;;;5079208;28;20412;-64
2021/03/22 10:31:04;;;;;;;10.40;8.63;;;8.00;99.90;;;;;;5070244;28;20397;-64
2021/03/22 10:33:30;;;;;;;10.00;7.23;;;8.00;99.90;;;;;;5069242;28;20169;-64
2021/03/22 10:35:59;;;;;;;8.23;7.37;;;8.00;99.90;;;;;;5070329;28;20392;-64
2021/03/22 10:38:31;;;;;;;9.93;7.30;;;8.10;99.90;;;;;;5070078;28;20439;-64
2021/03/22 10:40:59;;;;;;;7.00;6.30;;;8.10;99.90;;;;;;5069265;28;20434;-64
2021/03/22 10:46:20;;;;;;;9.63;6.90;;;8.20;99.90;;;;;;5094342;27;20522;-64
2021/03/22 10:49:17;;;;;;;7.23;6.53;;;8.40;99.90;;;;;;5089706;28;20772;-64
2021/03/22 10:51:47;;;;;;;5.60;4.63;;;8.50;99.90;;;;;;5089711;28;20760;-64
2021/03/22 10:54:17;;;;;;;8.87;5.80;;;8.60;99.90;;;;;;5090525;28;20396;-64
2021/03/22 10:59:28;;;;;;;11.10;5.97;;;8.70;99.90;;;;;;5111013;27;20508;-64
2021/03/22 11:01:56;;;;;;;7.73;5.43;;;8.90;99.90;;;;;;5103912;28;20799;-65
2021/03/22 11:07:22;;;;;;;6.07;5.13;;;8.90;99.90;;;;;;5131615;27;20563;-65
2021/03/22 11:10:18;;;;;;;8.20;4.93;;;9.00;99.90;;;;;;5130394;28;20398;-64
2021/03/22 11:12:46;;;;;;;6.80;5.00;;;9.00;99.90;;;;;;5130321;28;20448;-65
2021/03/22 11:17:53;;;;;;;6.97;4.40;;;9.10;99.90;;;;;;5131470;27;20556;-65
2021/03/22 11:20:20;;;;;;;5.07;4.43;;;9.10;99.90;;;;;;5113815;28;20414;-65
2021/03/22 11:22:48;;;;;;;7.57;4.40;;;9.10;99.90;;;;;;5111061;28;20394;-65
2021/03/22 11:28:27;;;;;;;7.30;4.47;;;9.10;99.90;;;;;;5110871;27;20558;-65
2021/03/22 11:33:38;;;;;;;3.73;3.30;;;9.10;99.90;;;;;;5131406;27;20510;-64
2021/03/22 11:36:13;;;;;;;7.07;4.00;;;9.30;99.90;;;;;;5124156;28;20411;-64
2021/03/22 11:38:57;;;;;;;3.90;3.60;;;9.40;99.90;;;;;;5110719;28;20387;-64
2021/03/22 11:47:28;;;;;;;7.03;5.43;;;9.50;99.90;;;;;;5131582;27;20565;-64
2021/03/22 11:49:56;;;;;;;6.10;4.37;;;9.50;99.90;;;;;;5116796;28;20383;-64
2021/03/22 11:55:04;;;;;;;9.13;4.37;;;9.40;99.90;;;;;;5131448;27;20861;-65
2021/03/22 12:05:32;;;;;;;6.67;5.13;;;9.20;99.90;;;;;;5131326;27;20866;-64
2021/03/22 12:07:59;;;;;;;5.87;5.30;;;9.20;99.90;;;;;;5131517;28;20375;-66
2021/03/22 12:10:33;;;;;;;7.23;5.17;;;9.20;99.90;;;;;;5103172;28;20406;-64
2021/03/22 12:13:02;;;;;;;7.23;5.80;;;9.30;99.90;;;;;;5092840;28;20411;-64
2021/03/22 12:15:29;;;;;;;4.57;4.17;;;9.20;99.90;;;;;;5121793;28;20494;-64
2021/03/22 12:17:58;;;;;;;6.33;4.10;;;9.30;99.90;;;;;;5112777;28;20394;-64
2021/03/22 12:20:28;;;;;;;4.13;3.83;;;9.30;99.90;;;;;;5113003;28;20395;-64
2021/03/22 12:22:55;;;;;;;5.20;3.30;;;9.20;99.90;;;;;;5131433;28;20383;-64
2021/03/22 12:25:25;;;;;;;8.03;4.40;;;9.20;99.90;;;;;;5130883;28;20542;-66
2021/03/22 12:27:52;;;;;;;7.00;3.93;;;9.10;99.90;;;;;;5112318;28;20490;-63
2021/03/22 12:30:19;;;;;;;5.53;4.20;;;9.10;99.90;;;;;;5130823;28;20394;-64
2021/03/22 12:32:45;;;;;;;4.60;3.70;;;9.00;99.90;;;;;;5131075;28;20390;-64
2021/03/22 12:35:19;;;;;;;4.67;3.40;;;9.00;99.90;;;;;;5130860;28;20973;-65
2021/03/22 12:37:44;;;;;;;4.30;3.77;;;9.00;99.90;;;;;;5130715;28;20618;-64
2021/03/22 12:40:13;;;;;;;5.23;3.80;;;9.00;99.90;;;;;;5131010;28;20476;-64
2021/03/22 12:42:40;;;;;;;4.33;3.93;;;9.10;99.90;;;;;;5112669;28;20165;-64
2021/03/22 12:45:08;;;;;;;4.10;3.00;;;9.20;99.90;;;;;;5129671;28;20446;-64
2021/03/22 12:47:34;;;;;;;4.37;3.97;;;9.30;99.90;;;;;;5092263;28;20384;-64
2021/03/22 12:50:01;;;;;;;6.53;4.17;;;9.40;99.90;;;;;;5091856;28;20398;-64
2021/03/22 12:52:27;;;;;;;7.27;4.07;;;9.50;99.90;;;;;;5110417;28;20426;-64
2021/03/22 12:54:52;;;;;;;4.43;3.20;;;9.60;99.90;;;;;;5110230;28;20396;-64
2021/03/22 12:57:22;;;;;;;4.60;3.60;;;9.60;99.90;;;;;;5109903;28;20400;-64
2021/03/22 12:59:49;;;;;;;3.53;2.73;;;9.70;99.90;;;;;;5091713;28;20177;-64
2021/03/22 13:02:18;;;;;;;3.73;3.33;;;9.70;99.90;;;;;;5109144;28;20917;-64
2021/03/22 13:04:45;;;;;;;4.03;3.10;;;9.60;99.90;;;;;;5109531;28;20485;-64
2021/03/22 13:07:11;;;;;;;7.60;3.40;;;9.60;99.90;;;;;;5110075;28;20422;-64
2021/03/22 13:09:38;;;;;;;4.20;2.60;;;9.60;99.90;;;;;;5091283;28;20404;-64
2021/03/22 13:12:07;;;;;;;4.50;2.80;;;9.50;99.90;;;;;;5091330;28;20587;-64
2021/03/22 13:14:34;;;;;;;2.03;1.83;;;9.50;99.90;;;;;;5091589;28;20419;-64
2021/03/22 13:16:59;;;;;;;3.70;2.50;;;9.40;99.90;;;;;;5095556;28;20397;-64
2021/03/22 13:19:25;;;;;;;4.93;2.00;;;9.40;99.90;;;;;;5095183;28;20531;-64
2021/03/22 13:21:50;;;;;;;5.20;2.10;;;9.40;99.90;;;;;;5095980;28;20236;-66
2021/03/22 13:24:19;;;;;;;3.10;1.77;;;9.30;99.90;;;;;;5095728;28;20235;-64
2021/03/22 13:26:45;;;;;;;2.93;2.13;;;9.30;99.90;;;;;;5096003;28;20511;-64
2021/03/22 13:29:11;;;;;;;5.67;2.00;;;9.30;99.90;;;;;;5095608;28;20400;-65
2021/03/22 13:31:37;;;;;;;2.70;1.93;;;9.20;99.90;;;;;;5095918;28;20389;-66
2021/03/22 13:34:02;;;;;;;3.87;2.10;;;9.20;99.90;;;;;;5095986;28;20637;-64
2021/03/22 13:36:29;;;;;;;4.77;2.80;;;9.20;99.90;;;;;;5094726;28;20416;-64
2021/03/22 13:38:54;;;;;;;4.57;3.57;;;9.20;99.90;;;;;;5077633;28;20166;-64
2021/03/22 13:43:56;;;;;;;3.33;2.70;;;9.20;99.90;;;;;;5110865;27;20886;-65
2021/03/22 13:46:22;;;;;;;6.00;2.40;;;9.10;99.90;;;;;;5111083;28;20415;-65
2021/03/22 13:48:48;;;;;;;3.30;2.37;;;9.10;99.90;;;;;;5109916;28;20931;-65
2021/03/22 13:51:17;;;;;;;4.93;2.80;;;9.10;99.90;;;;;;5110314;28;20419;-64
2021/03/22 13:53:43;;;;;;;3.40;2.10;;;9.10;99.90;;;;;;5089427;28;20256;-65
2021/03/22 13:56:08;;;;;;;2.60;1.87;;;9.10;99.90;;;;;;5090291;28;20483;-64
2021/03/22 13:58:34;;;;;;;2.87;2.53;;;9.10;99.90;;;;;;5090308;28;20645;-65
2021/03/22 14:01:00;;;;;;;4.83;3.20;;;9.10;99.90;;;;;;5090654;28;20178;-65
2021/03/22 14:03:25;;;;;;;7.70;3.37;;;9.20;99.90;;;;;;5088748;28;20187;-65
2021/03/22 14:05:53;;;;;;;5.43;2.80;;;9.30;99.90;;;;;;5090082;28;20142;-65
2021/03/22 14:08:19;;;;;;;4.07;2.97;;;9.40;99.90;;;;;;5090814;28;20583;-64
2021/03/22 14:10:44;;;;;;;4.53;2.87;;;9.50;99.90;;;;;;5090159;28;20393;-65
2021/03/22 14:13:10;;;;;;;7.40;3.67;;;9.60;99.90;;;;;;5090376;28;20159;-65
2021/03/22 14:15:39;;;;;;;5.70;3.50;;;9.70;99.90;;;;;;5089909;28;20175;-65
2021/03/22 14:18:07;;;;;;;6.90;4.53;;;9.70;99.90;;;;;;5088992;28;20151;-65
2021/03/22 14:20:34;;;;;;;6.60;3.00;;;9.70;99.90;;;;;;5090047;28;20890;-65
2021/03/22 14:23:00;;;;;;;5.93;3.27;;;9.70;99.90;;;;;;5088441;28;20444;-65
2021/03/22 14:25:27;;;;;;;4.73;3.43;;;9.70;99.90;;;;;;5090650;28;20400;-65
2021/03/22 14:27:52;;;;;;;8.10;4.57;;;9.70;99.90;;;;;;5109142;28;20165;-65
2021/03/22 14:30:23;;;;;;;5.53;5.00;;;9.70;99.90;;;;;;5110055;28;20475;-65
2021/03/22 14:32:49;;;;;;;5.90;4.37;;;9.60;99.90;;;;;;5108964;28;20220;-65
2021/03/22 14:35:16;;;;;;;9.13;5.30;;;9.60;99.90;;;;;;5109913;28;20404;-65
2021/03/22 14:37:41;;;;;;;5.30;4.80;;;9.50;99.90;;;;;;5108826;28;20400;-65
2021/03/22 14:40:09;;;;;;;8.73;5.23;;;9.40;99.90;;;;;;5109884;28;20404;-65
2021/03/22 14:42:34;;;;;;;6.90;3.70;;;9.40;99.90;;;;;;5108783;28;20208;-65
2021/03/22 14:45:00;;;;;;;5.17;4.03;;;9.40;99.90;;;;;;5109742;28;20463;-64
2021/03/22 14:47:26;;;;;;;6.53;3.47;;;9.50;99.90;;;;;;5109739;28;20216;-64
2021/03/22 14:49:52;;;;;;;6.43;3.90;;;9.50;99.90;;;;;;5109676;28;20602;-64
2021/03/22 14:52:20;;;;;;;7.80;4.43;;;9.50;99.90;;;;;;5108673;28;20261;-65
2021/03/22 14:54:47;;;;;;;10.03;5.77;;;9.60;99.90;;;;;;5099213;28;20523;-65
2021/03/22 14:57:14;;;;;;;10.67;5.50;;;9.60;99.90;;;;;;5096220;28;20397;-65
2021/03/22 14:59:40;;;;;;;9.00;6.23;;;9.60;99.90;;;;;;5095248;28;20918;-65
2021/03/22 15:02:06;;;;;;;10.77;5.90;;;9.60;99.90;;;;;;5094548;28;20436;-65
2021/03/22 15:04:31;;;;;;;8.83;4.93;;;9.60;99.90;;;;;;5095692;28;20396;-65
2021/03/22 15:06:57;;;;;;;5.70;4.23;;;9.60;99.90;;;;;;5095939;28;20186;-64
2021/03/22 15:09:22;;;;;;;9.13;4.67;;;9.60;99.90;;;;;;5095690;28;20236;-64
2021/03/22 15:11:50;;;;;;;6.97;4.00;;;9.60;99.90;;;;;;5095758;28;20184;-64
2021/03/22 15:14:15;;;;;;;6.83;4.57;;;9.60;99.90;;;;;;5094422;28;20146;-65
2021/03/22 15:16:41;;;;;;;8.43;3.83;;;9.50;99.90;;;;;;5075787;28;20412;-65
2021/03/22 15:19:07;;;;;;;6.30;4.30;;;9.50;99.90;;;;;;5075527;28;20156;-65
2021/03/22 15:21:33;;;;;;;6.43;4.70;;;9.50;99.90;;;;;;5075481;28;20181;-65
2021/03/22 15:23:58;;;;;;;8.23;4.47;;;9.50;99.90;;;;;;5073977;28;20223;-65
2021/03/22 15:26:24;;;;;;;5.80;4.40;;;9.40;99.90;;;;;;5075303;28;20390;-65
2021/03/22 15:28:50;;;;;;;7.20;4.60;;;9.40;99.90;;;;;;5075255;28;20170;-65
2021/03/22 15:31:16;;;;;;;7.33;5.20;;;9.40;99.90;;;;;;5073866;28;20397;-65
2021/03/22 15:33:42;;;;;;;9.90;5.37;;;9.40;99.90;;;;;;5075915;28;20902;-65
2021/03/22 15:36:12;;;;;;;18.33;9.03;;;9.40;99.90;;;;;;5075171;28;20182;-65
2021/03/22 15:38:38;;;;;;;8.23;6.27;;;9.40;99.90;;;;;;5073838;28;20749;-65
2021/03/22 15:41:06;;;;;;;8.10;5.73;;;9.40;99.90;;;;;;5073669;28;20397;-65
2021/03/22 15:43:34;;;;;;;7.07;5.63;;;9.40;99.90;;;;;;5074609;28;20468;-65
2021/03/22 15:46:03;;;;;;;7.80;4.63;;;9.30;99.90;;;;;;5073663;28;20478;-65
2021/03/22 15:48:28;;;;;;;11.63;7.00;;;9.30;99.90;;;;;;5074939;28;20382;-64
2021/03/22 15:50:54;;;;;;;11.93;7.30;;;9.30;99.90;;;;;;5080558;28;20403;-64
2021/03/22 15:53:19;;;;;;;8.17;5.00;;;9.30;99.90;;;;;;5093603;28;20159;-64
2021/03/22 15:55:45;;;;;;;6.20;4.50;;;9.20;99.90;;;;;;5094849;28;20150;-65
2021/03/22 15:58:11;;;;;;;8.33;5.43;;;9.20;99.90;;;;;;5094722;28;20154;-64
2021/03/22 16:00:39;;;;;;;7.93;5.10;;;9.20;99.90;;;;;;5094851;28;20154;-64
2021/03/22 16:03:07;;;;;;;8.43;4.63;;;9.20;99.90;;;;;;5093692;28;20662;-64
2021/03/22 16:05:33;;;;;;;9.43;5.73;;;9.10;99.90;;;;;;5093829;28;20396;-64
2021/03/22 16:08:01;;;;;;;9.70;5.00;;;9.10;99.90;;;;;;5093717;28;20770;-64
2021/03/22 16:10:27;;;;;;;6.93;4.70;;;9.10;99.90;;;;;;5094758;28;20163;-64
2021/03/22 16:12:55;;;;;;;7.70;4.57;;;9.10;99.90;;;;;;5094467;28;20943;-64
2021/03/22 16:15:23;;;;;;;6.57;4.73;;;9.10;99.90;;;;;;5082983;28;20412;-64
2021/03/22 16:17:49;;;;;;;10.07;4.47;;;9.10;99.90;;;;;;5074022;28;20431;-64